CheckWX is a tool to help pilots better visualize weather data.  It is not intended as a substitute for an official pre-flight weather briefing.

12:47:24 UTC

YPWR METAR
Woomera Airfield Airport
Woomera, Australia
Current

47 mins ago

YPWR 311200Z AUTO 25007KT 9999 // NCD 23/03 Q1015 RF00.0/000.0
Observed
Mar-31 @ 12:00 UTC
Wind
  • 250° at 7 KTS
Visibility
10,000+ meters
Flight Rules
VFR
Cloud Levels
  • Clear skies
Temperature
23°C / 73°F
Dewpoint
C / 37°F
Humidity
27%
Altimeter
29.97" Hg
Pressure
1014.92 hPa
Previous

47 mins ago

YPWR 311200Z AUTO 25007KT 9999 // NCD 23/03 Q1015
Observed
Mar-31 @ 12:00 UTC
Wind
  • 250° at 7 KTS
Visibility
10,000+ meters
Flight Rules
VFR
Cloud Levels
  • Clear skies
Temperature
23°C / 73°F
Dewpoint
C / 37°F
Humidity
27%
Altimeter
29.97" Hg
Pressure
1014.92 hPa
Previous

1 hour ago

YPWR 311130Z AUTO 26009KT 9999 // NCD 23/05 Q1015 RF00.0/000.0
Observed
Mar-31 @ 11:30 UTC
Wind
  • 260° at 9 KTS
Visibility
10,000+ meters
Flight Rules
VFR
Cloud Levels
  • Clear skies
Temperature
23°C / 73°F
Dewpoint
C / 41°F
Humidity
31%
Altimeter
29.97" Hg
Pressure
1014.92 hPa